createdAt,value
2018-03-16T00:05:08.000Z,991.771
2018-03-16T00:15:08.000Z,991.784
2018-03-16T00:25:08.000Z,991.805
2018-03-16T00:35:08.000Z,991.856
2018-03-16T00:45:09.000Z,992.001
2018-03-16T00:55:08.000Z,991.991
2018-03-16T01:05:08.000Z,992.088
2018-03-16T01:15:08.000Z,992.133
2018-03-16T01:25:08.000Z,992.023
2018-03-16T01:35:08.000Z,991.981
2018-03-16T01:45:08.000Z,991.919
2018-03-16T01:55:08.000Z,991.904
2018-03-16T02:05:08.000Z,992.019
2018-03-16T02:15:08.000Z,992.115
2018-03-16T02:25:08.000Z,992.079
2018-03-16T02:35:08.000Z,992.078
2018-03-16T02:45:08.000Z,992.1
2018-03-16T02:55:08.000Z,991.99
2018-03-16T03:05:08.000Z,992.071
2018-03-16T03:15:08.000Z,992.115
2018-03-16T03:25:08.000Z,992.141
2018-03-16T03:35:08.000Z,992.289
2018-03-16T03:45:08.000Z,992.417
2018-03-16T03:55:08.000Z,992.445
2018-03-16T04:05:08.000Z,992.532
2018-03-16T04:15:08.000Z,992.615
2018-03-16T04:25:08.000Z,992.688
2018-03-16T04:35:08.000Z,992.763
2018-03-16T04:45:08.000Z,992.783
2018-03-16T04:55:08.000Z,992.867
2018-03-16T05:05:09.000Z,992.943
2018-03-16T05:15:08.000Z,992.977
2018-03-16T05:25:09.000Z,993.084
2018-03-16T05:35:09.000Z,993.224
2018-03-16T05:45:09.000Z,993.356
2018-03-16T05:55:09.000Z,993.403
2018-03-16T06:05:09.000Z,993.589
2018-03-16T06:15:09.000Z,993.697
2018-03-16T06:25:09.000Z,993.76
2018-03-16T06:35:09.000Z,993.876
2018-03-16T06:45:09.000Z,993.988
2018-03-16T06:55:09.000Z,994.052
2018-03-16T07:05:09.000Z,994.196
2018-03-16T07:15:09.000Z,994.341
2018-03-16T07:25:09.000Z,994.473
2018-03-16T07:35:09.000Z,994.547
2018-03-16T07:45:09.000Z,994.638
2018-03-16T07:55:09.000Z,994.691
2018-03-16T08:05:09.000Z,994.833
2018-03-16T08:15:09.000Z,995
2018-03-16T08:25:09.000Z,995.108
2018-03-16T08:35:09.000Z,995.171
2018-03-16T08:45:09.000Z,995.272
2018-03-16T08:55:09.000Z,995.319
2018-03-16T09:05:09.000Z,995.389
2018-03-16T09:15:09.000Z,995.432
2018-03-16T09:25:09.000Z,995.563
2018-03-16T09:35:09.000Z,995.724
2018-03-16T09:45:09.000Z,995.736
2018-03-16T09:55:09.000Z,995.858
2018-03-16T10:05:09.000Z,995.838
2018-03-16T10:15:09.000Z,995.896
2018-03-16T10:25:09.000Z,995.943
2018-03-16T10:35:09.000Z,996.007
2018-03-16T10:45:09.000Z,996.154
2018-03-16T10:55:09.000Z,996.242
2018-03-16T11:05:09.000Z,996.243
2018-03-16T11:15:09.000Z,996.347
2018-03-16T11:25:09.000Z,996.47
2018-03-16T11:35:09.000Z,996.448
2018-03-16T11:45:09.000Z,996.56
2018-03-16T11:55:09.000Z,996.649
2018-03-16T12:05:09.000Z,996.764
2018-03-16T12:15:09.000Z,996.937
2018-03-16T12:25:09.000Z,996.963
2018-03-16T12:35:09.000Z,997.039
2018-03-16T12:45:09.000Z,997.112
2018-03-16T12:55:09.000Z,997.145
2018-03-16T13:05:09.000Z,997.174
2018-03-16T13:15:09.000Z,997.3
2018-03-16T13:25:09.000Z,997.352
2018-03-16T13:35:09.000Z,997.375
2018-03-16T13:45:09.000Z,997.435
2018-03-16T13:55:10.000Z,997.508
2018-03-16T14:05:10.000Z,997.642
2018-03-16T14:15:10.000Z,997.707
2018-03-16T14:25:10.000Z,997.79
2018-03-16T14:35:10.000Z,997.845
2018-03-16T14:45:10.000Z,997.931
2018-03-16T14:55:10.000Z,998.029
2018-03-16T15:05:10.000Z,998.172
2018-03-16T15:15:10.000Z,998.179
2018-03-16T15:25:10.000Z,998.239
2018-03-16T15:35:10.000Z,998.366
2018-03-16T15:45:10.000Z,998.388
2018-03-16T15:55:13.000Z,998.482
2018-03-16T16:05:10.000Z,998.541
2018-03-16T16:15:10.000Z,998.675
2018-03-16T16:25:10.000Z,998.667
2018-03-16T16:35:10.000Z,998.727
2018-03-16T16:45:10.000Z,998.846
2018-03-16T16:55:10.000Z,998.95
2018-03-16T17:05:10.000Z,999.017
2018-03-16T17:15:10.000Z,999.195
2018-03-16T17:25:10.000Z,999.421
2018-03-16T17:35:10.000Z,999.537
2018-03-16T17:45:10.000Z,999.589
2018-03-16T17:55:10.000Z,999.635
2018-03-16T18:05:10.000Z,999.779
2018-03-16T18:15:10.000Z,1000.005
2018-03-16T18:25:10.000Z,1000.18
2018-03-16T18:35:10.000Z,1000.32
2018-03-16T18:45:10.000Z,1000.37
2018-03-16T18:55:11.000Z,1000.388
2018-03-16T19:05:10.000Z,1000.455
2018-03-16T19:15:10.000Z,1000.458
2018-03-16T19:25:11.000Z,1000.684
2018-03-16T19:35:10.000Z,1000.592
2018-03-16T19:45:11.000Z,1000.681
2018-03-16T19:55:10.000Z,1000.656
2018-03-16T20:05:12.000Z,1000.823
2018-03-16T20:15:10.000Z,1000.927
2018-03-16T20:25:10.000Z,1000.989
2018-03-16T20:35:10.000Z,1001.05
2018-03-16T20:45:10.000Z,1001.091
2018-03-16T20:55:10.000Z,1001.138
2018-03-16T21:05:10.000Z,1001.265
2018-03-16T21:15:10.000Z,1001.368
2018-03-16T21:25:10.000Z,1001.409
2018-03-16T21:35:10.000Z,1001.46
2018-03-16T21:45:10.000Z,1001.48
2018-03-16T21:55:10.000Z,1001.535
2018-03-16T22:05:11.000Z,1001.597
2018-03-16T22:15:12.000Z,1001.602
2018-03-16T22:35:11.000Z,1001.607
2018-03-16T22:45:11.000Z,1001.663
2018-03-16T22:55:11.000Z,1001.702
2018-03-16T23:05:12.000Z,1001.712
2018-03-16T23:15:11.000Z,1001.809
2018-03-16T23:25:11.000Z,1001.904
2018-03-16T23:35:11.000Z,1001.856
2018-03-16T23:45:11.000Z,1001.808
2018-03-16T23:55:11.000Z,1001.701
